Rechercher aéroport 
image banner adimage banner adimage banner ad
image banner ad

KSMF - Sacramento Intl

Situé à Sacramento, United States

ICAO - SMF, IATA - SMF

Données fournies par Airmate  

Information générale

Coordonnées: N38°41'44" W121°35'27"
Élévation : 27 feet MSL.
Variation magnétique : 13° East
Voir autres Aéroports à California

Données opérationnelles

Special qualification required
Heure actuelle UTC:
Heure actuelle locale:
Météo
METAR: KSMF 300153Z 17010KT 10SM FEW250 37/16 A2977 RMK AO2 SLP082 T03670161
TAF: KSMF 292350Z 3000/3024 23005KT P6SM FEW250 FM300200 19008KT P6SM FEW250 FM301100 16005KT P6SM FEW150 FM302300 20007KT P6SM SKC
Voir NOTAMs / SUP AIP / TFR affectant cet aéroport [VIEW]
Fréquences de communication: [VIEW]

Pistes:

Identifiant RWYQFULongueur (ft)Largeur (ft)SurfaceLDA (ft)
17L181°8605150CONC8605
35R8605150CONC8605
17R181°8598150CONC8598
35L8598150CONC8598

Coordonnées de l'aéroport

Adresse: Sacramento United States

Vue satellite de KSMF